Time;durP1;ratioP1;P1;durP2;ratioP2;P2;SDS_P1;SDS_P2;PMS_P1;PMS_P2;Temp;Humidity;BMP_temperature;BMP_pressure;BME280_temperature;BME280_humidity;BME280_pressure;Samples;Min_cycle;Max_cycle;Signal;HPM_P1;HPM_P2
2022/02/22 00:00:14;;;;;;;;;10.00;8.00;;;;;-146.37;100.00;59337.28;6389788;22;8750;-83
2022/02/22 00:02:44;;;;;;;;;10.00;9.00;;;;;-146.37;100.00;59337.28;6361466;22;8703;-83
2022/02/22 00:05:11;;;;;;;;;12.25;10.00;;;;;-146.37;100.00;59337.28;6387603;22;8697;-83
2022/02/22 00:07:37;;;;;;;;;10.25;8.50;;;;;-146.37;100.00;59337.28;6359916;22;8810;-83
2022/02/22 00:10:05;;;;;;;;;16.50;8.00;;;;;-146.37;100.00;59337.28;6388091;22;8812;-83
2022/02/22 00:12:30;;;;;;;;;9.50;9.00;;;;;-146.37;100.00;59337.28;6386546;22;8726;-82
2022/02/22 00:14:56;;;;;;;;;10.00;8.00;;;;;-146.37;100.00;59337.28;6390147;22;8772;-83
2022/02/22 00:17:21;;;;;;;;;8.67;8.67;;;;;-146.37;100.00;59337.28;6361491;22;8758;-83
2022/02/22 00:19:47;;;;;;;;;14.00;10.00;;;;;-146.37;100.00;59337.28;6390027;22;8845;-83
2022/02/22 00:22:15;;;;;;;;;7.67;6.33;;;;;-146.37;100.00;59337.28;6388688;22;8853;-83
2022/02/22 00:24:40;;;;;;;;;9.00;7.25;;;;;-146.37;100.00;59337.28;6388003;22;8713;-83
2022/02/22 00:27:06;;;;;;;;;8.00;7.33;;;;;-146.37;100.00;59337.28;6391658;22;8766;-83
2022/02/22 00:29:31;;;;;;;;;13.33;7.33;;;;;-146.37;100.00;59337.28;6365859;22;8751;-83
2022/02/22 00:31:57;;;;;;;;;7.33;5.33;;;;;-146.37;100.00;59337.28;6393460;22;8837;-83
2022/02/22 00:34:22;;;;;;;;;14.67;11.33;;;;;-146.37;100.00;59337.28;6393431;22;8776;-84
2022/02/22 00:36:48;;;;;;;;;13.67;9.00;;;;;-146.37;100.00;59337.28;6393636;22;8847;-83
2022/02/22 00:39:14;;;;;;;;;13.00;11.33;;;;;-146.37;100.00;59337.28;6394607;22;8760;-83
2022/02/22 00:41:39;;;;;;;;;10.67;8.00;;;;;-146.37;100.00;59337.28;6363066;22;8787;-83
2022/02/22 00:44:04;;;;;;;;;12.00;9.67;;;;;-146.37;100.00;59337.28;6379975;22;8792;-83
2022/02/22 00:46:30;;;;;;;;;10.67;8.67;;;;;-146.37;100.00;59337.28;6391613;22;8828;-83
2022/02/22 00:48:56;;;;;;;;;10.00;10.00;;;;;-146.37;100.00;59337.28;6389122;22;8780;-83
2022/02/22 00:51:22;;;;;;;;;10.67;9.00;;;;;-146.37;100.00;59337.28;6391608;22;8739;-83
2022/02/22 00:53:48;;;;;;;;;12.00;9.33;;;;;-146.37;100.00;59337.28;6388318;22;8762;-83
2022/02/22 00:56:13;;;;;;;;;10.00;10.00;;;;;-146.37;100.00;59337.28;6389861;22;8743;-83
2022/02/22 00:58:39;;;;;;;;;11.33;9.67;;;;;-146.37;100.00;59337.28;6392343;22;8897;-83
2022/02/22 01:01:04;;;;;;;;;9.00;7.33;;;;;-146.37;100.00;59337.28;6391265;22;8749;-83
2022/02/22 01:03:30;;;;;;;;;8.00;6.33;;;;;-146.37;100.00;59337.28;6392492;22;8750;-83
2022/02/22 01:05:55;;;;;;;;;12.67;11.67;;;;;-146.37;100.00;59337.28;6393005;22;8778;-84
2022/02/22 01:08:21;;;;;;;;;8.33;7.00;;;;;-146.37;100.00;59337.28;6391200;22;8770;-82
2022/02/22 01:10:46;;;;;;;;;12.67;12.67;;;;;-146.37;100.00;59337.28;6418251;22;8687;-82
2022/02/22 01:13:14;;;;;;;;;12.00;8.67;;;;;-146.37;100.00;59337.28;6391999;22;8694;-82
2022/02/22 01:15:40;;;;;;;;;12.50;8.75;;;;;-146.37;100.00;59337.28;6390330;22;8807;-82
2022/02/22 01:18:05;;;;;;;;;8.33;7.67;;;;;-146.37;100.00;59337.28;6390806;22;8655;-82
2022/02/22 01:20:30;;;;;;;;;11.00;9.00;;;;;-146.37;100.00;59337.28;6391637;22;10096;-83
2022/02/22 01:22:56;;;;;;;;;8.33;6.00;;;;;-146.37;100.00;59337.28;6390669;22;8754;-82
2022/02/22 01:25:26;;;;;;;;;11.75;6.75;;;;;-146.37;100.00;59337.28;6394307;22;8756;-82
2022/02/22 01:27:52;;;;;;;;;9.25;8.00;;;;;-146.37;100.00;59337.28;6392051;22;8739;-82
2022/02/22 01:30:17;;;;;;;;;11.67;10.33;;;;;-146.37;100.00;59337.28;6392649;22;8778;-84
2022/02/22 01:32:43;;;;;;;;;9.33;8.67;;;;;-146.37;100.00;59337.28;6418427;22;9438;-82
2022/02/22 01:35:08;;;;;;;;;9.00;9.00;;;;;-146.37;100.00;59337.28;6394449;22;8853;-82
2022/02/22 01:37:34;;;;;;;;;12.33;9.00;;;;;-146.37;100.00;59337.28;6392318;22;8738;-82
2022/02/22 01:39:59;;;;;;;;;17.67;13.67;;;;;-146.37;100.00;59337.28;6391268;22;8782;-82
2022/02/22 01:42:25;;;;;;;;;9.67;7.33;;;;;-146.37;100.00;59337.28;6388229;22;8762;-82
2022/02/22 01:44:51;;;;;;;;;9.00;7.00;;;;;-146.37;100.00;59337.28;6412647;22;8793;-83
2022/02/22 01:47:17;;;;;;;;;12.75;8.25;;;;;-146.37;100.00;59337.28;6414185;22;8746;-83
2022/02/22 01:49:43;;;;;;;;;7.33;5.33;;;;;-146.37;100.00;59337.28;6387987;22;8773;-82
2022/02/22 01:52:11;;;;;;;;;20.25;10.75;;;;;-146.37;100.00;59337.28;6390148;22;8719;-82
2022/02/22 01:54:37;;;;;;;;;13.00;12.00;;;;;-146.37;100.00;59337.28;6389163;22;8717;-82
2022/02/22 01:57:02;;;;;;;;;11.25;5.00;;;;;-146.37;100.00;59337.28;6413848;22;8785;-82
2022/02/22 01:59:28;;;;;;;;;14.33;10.67;;;;;-146.37;100.00;59337.28;6388919;22;8774;-82
2022/02/22 02:01:54;;;;;;;;;10.00;7.00;;;;;-146.37;100.00;59337.28;6388358;22;8755;-83
2022/02/22 02:04:20;;;;;;;;;12.67;11.00;;;;;-146.37;100.00;59337.28;6387049;22;8750;-82
2022/02/22 02:06:46;;;;;;;;;14.00;9.00;;;;;-146.37;100.00;59337.28;6387616;22;10688;-83
2022/02/22 02:09:13;;;;;;;;;11.25;7.00;;;;;-146.37;100.00;59337.28;6387754;22;9402;-82
2022/02/22 02:11:46;;;;;;;;;12.25;9.25;;;;;-146.37;100.00;59337.28;6418179;22;8698;-82
2022/02/22 02:14:11;;;;;;;;;12.00;8.50;;;;;-146.37;100.00;59337.28;6394859;22;8730;-82
2022/02/22 02:16:37;;;;;;;;;11.33;7.67;;;;;-146.37;100.00;59337.28;6392743;22;8679;-82
2022/02/22 02:19:03;;;;;;;;;7.67;4.00;;;;;-146.37;100.00;59337.28;6392090;22;8711;-83
2022/02/22 02:21:31;;;;;;;;;14.00;8.67;;;;;-146.37;100.00;59337.28;6416352;22;8722;-83
2022/02/22 02:24:19;;;;;;;;;14.00;10.50;;;;;-146.37;100.00;59337.28;6389921;22;9840;-83
2022/02/22 02:26:46;;;;;;;;;13.50;8.25;;;;;-146.37;100.00;59337.28;6385702;22;8768;-84
2022/02/22 02:29:18;;;;;;;;;17.50;12.50;;;;;-146.37;100.00;59337.28;6388541;22;8727;-83
2022/02/22 02:31:46;;;;;;;;;12.00;8.75;;;;;-146.37;100.00;59337.28;6388087;22;8699;-83
2022/02/22 02:34:15;;;;;;;;;16.00;14.50;;;;;-146.37;100.00;59337.28;6387829;22;8807;-83
2022/02/22 02:36:41;;;;;;;;;9.00;6.50;;;;;-146.37;100.00;59337.28;6387701;22;8750;-83
2022/02/22 02:39:08;;;;;;;;;12.00;8.25;;;;;-146.37;100.00;59337.28;6387095;22;8709;-83
2022/02/22 02:41:35;;;;;;;;;11.50;8.75;;;;;-146.37;100.00;59337.28;6413646;22;8738;-83
2022/02/22 02:44:03;;;;;;;;;8.00;6.75;;;;;-146.37;100.00;59337.28;6390662;22;8861;-83
2022/02/22 02:46:29;;;;;;;;;14.00;12.50;;;;;-146.37;100.00;59337.28;6393266;22;8878;-83
2022/02/22 02:48:55;;;;;;;;;10.67;8.00;;;;;-146.37;100.00;59337.28;6392451;22;8956;-83
2022/02/22 02:51:24;;;;;;;;;11.00;9.00;;;;;-146.37;100.00;59337.28;6365905;22;8752;-83
2022/02/22 02:54:27;;;;;;;;;8.25;7.50;;;;;-146.37;100.00;59337.28;6365692;22;8778;-83
2022/02/22 02:56:53;;;;;;;;;9.25;8.50;;;;;-146.37;100.00;59337.28;6399374;22;8688;-83
2022/02/22 02:59:18;;;;;;;;;11.33;9.67;;;;;-146.37;100.00;59337.28;6365278;22;8757;-83
2022/02/22 03:01:44;;;;;;;;;11.00;8.67;;;;;-146.37;100.00;59337.28;6392789;22;8719;-82
2022/02/22 03:04:11;;;;;;;;;8.33;5.33;;;;;-146.37;100.00;59337.28;6362762;22;8747;-83
2022/02/22 03:06:36;;;;;;;;;13.25;9.50;;;;;-146.37;100.00;59337.28;6363490;22;8744;-83
2022/02/22 03:09:02;;;;;;;;;9.00;8.33;;;;;-146.37;100.00;59337.28;6391307;22;8921;-83
2022/02/22 03:11:28;;;;;;;;;14.67;9.33;;;;;-146.37;100.00;59337.28;6389306;22;9443;-83
2022/02/22 03:13:53;;;;;;;;;11.33;8.67;;;;;-146.37;100.00;59337.28;6365015;22;12265;-83
2022/02/22 03:16:19;;;;;;;;;8.33;6.67;;;;;-146.37;100.00;59337.28;6365804;22;8776;-84
2022/02/22 03:18:45;;;;;;;;;12.67;8.67;;;;;-146.37;100.00;59337.28;6392745;22;8854;-83
2022/02/22 03:21:11;;;;;;;;;9.67;9.67;;;;;-146.37;100.00;59337.28;6394244;22;8732;-83
2022/02/22 03:23:37;;;;;;;;;9.00;7.25;;;;;-146.37;100.00;59337.28;6364911;22;9605;-83
2022/02/22 03:26:03;;;;;;;;;11.25;10.00;;;;;-146.37;100.00;59337.28;6391509;22;8766;-83
2022/02/22 03:28:29;;;;;;;;;9.25;7.75;;;;;-146.37;100.00;59337.28;6362194;22;8684;-84
2022/02/22 03:30:55;;;;;;;;;12.67;6.67;;;;;-146.37;100.00;59337.28;6361481;22;8870;-83
2022/02/22 03:36:43;;;;;;;;;10.50;10.50;;;;;-146.37;100.00;59337.28;6390725;22;8736;-83
2022/02/22 03:39:09;;;;;;;;;13.00;9.00;;;;;-146.37;100.00;59337.28;6360728;22;8688;-83
2022/02/22 03:41:34;;;;;;;;;11.00;9.00;;;;;-146.37;100.00;59337.28;6390792;22;8805;-84
2022/02/22 03:44:00;;;;;;;;;14.00;11.33;;;;;-146.37;100.00;59337.28;6392312;22;8811;-84
2022/02/22 03:46:27;;;;;;;;;13.00;8.67;;;;;-146.37;100.00;59337.28;6363160;22;8880;-84
2022/02/22 03:48:53;;;;;;;;;8.00;7.25;;;;;-146.37;100.00;59337.28;6391251;22;9650;-84
2022/02/22 03:51:18;;;;;;;;;16.67;11.00;;;;;-146.37;100.00;59337.28;6391876;22;8720;-84
2022/02/22 03:53:44;;;;;;;;;16.67;9.33;;;;;-146.37;100.00;59337.28;6392436;22;8936;-84
2022/02/22 03:56:09;;;;;;;;;15.67;12.00;;;;;-146.37;100.00;59337.28;6361459;22;8764;-84
2022/02/22 03:58:34;;;;;;;;;15.00;11.33;;;;;-146.37;100.00;59337.28;6391931;22;8743;-84
2022/02/22 04:01:00;;;;;;;;;14.33;11.00;;;;;-146.37;100.00;59337.28;6391919;22;8797;-84
2022/02/22 04:03:26;;;;;;;;;8.00;6.00;;;;;-146.37;100.00;59337.28;6390339;22;8740;-84
2022/02/22 04:05:51;;;;;;;;;11.00;10.00;;;;;-146.37;100.00;59337.28;6361843;22;8739;-84
2022/02/22 04:08:16;;;;;;;;;9.00;6.00;;;;;-146.37;100.00;59337.28;6389900;22;8772;-84
2022/02/22 04:10:43;;;;;;;;;12.67;11.67;;;;;-146.37;100.00;59337.28;6391395;22;8731;-84
2022/02/22 04:13:09;;;;;;;;;17.25;8.75;;;;;-146.37;100.00;59337.28;6360671;22;8744;-84
2022/02/22 04:15:34;;;;;;;;;12.67;11.00;;;;;-146.37;100.00;59337.28;6388062;22;8799;-83
2022/02/22 04:17:59;;;;;;;;;10.33;7.33;;;;;-146.37;100.00;59337.28;6360509;22;8782;-83
2022/02/22 04:20:25;;;;;;;;;8.33;8.00;;;;;-146.37;100.00;59337.28;6388548;22;8859;-84
2022/02/22 04:22:52;;;;;;;;;11.00;8.00;;;;;-146.37;100.00;59337.28;6388673;22;8744;-84
2022/02/22 04:25:18;;;;;;;;;12.75;7.25;;;;;-146.37;100.00;59337.28;6360865;22;8721;-84
2022/02/22 04:27:43;;;;;;;;;8.33;8.33;;;;;-146.37;100.00;59337.28;6359465;22;9148;-83
2022/02/22 04:30:10;;;;;;;;;7.00;3.00;;;;;-146.37;100.00;59337.28;6386266;22;8840;-84
2022/02/22 04:32:35;;;;;;;;;8.75;8.75;;;;;-146.37;100.00;59337.28;6386992;22;8760;-84
2022/02/22 04:38:30;;;;;;;;;14.50;12.00;;;;;-146.37;100.00;59337.28;6388401;22;8732;-84
2022/02/22 04:40:55;;;;;;;;;22.25;14.25;;;;;-146.37;100.00;59337.28;6388273;22;8677;-82
2022/02/22 04:43:21;;;;;;;;;12.00;9.00;;;;;-146.37;100.00;59337.28;6361414;22;8774;-82
2022/02/22 04:45:46;;;;;;;;;9.00;8.00;;;;;-146.37;100.00;59337.28;6388170;22;8811;-83
2022/02/22 04:48:11;;;;;;;;;8.33;6.00;;;;;-146.37;100.00;59337.28;6387047;22;8782;-83
2022/02/22 04:50:37;;;;;;;;;8.00;7.00;;;;;-146.37;100.00;59337.28;6386826;22;8795;-83
2022/02/22 04:53:03;;;;;;;;;14.00;8.33;;;;;-146.37;100.00;59337.28;6388694;22;8815;-83
2022/02/22 04:55:29;;;;;;;;;7.50;4.00;;;;;-146.37;100.00;59337.28;6389008;22;8747;-82
2022/02/22 04:57:55;;;;;;;;;10.67;8.67;;;;;-146.37;100.00;59337.28;6413901;22;8746;-82
2022/02/22 05:00:26;;;;;;;;;13.33;9.00;;;;;-146.37;100.00;59337.28;6386663;22;8886;-83
2022/02/22 05:02:52;;;;;;;;;13.00;8.50;;;;;-146.37;100.00;59337.28;6387015;22;8754;-83
2022/02/22 05:05:17;;;;;;;;;13.00;9.00;;;;;-146.37;100.00;59337.28;6389239;22;8777;-83
2022/02/22 05:07:43;;;;;;;;;11.00;9.67;;;;;-146.37;100.00;59337.28;6387305;22;8831;-82
2022/02/22 05:10:09;;;;;;;;;12.33;11.33;;;;;-146.37;100.00;59337.28;6388899;22;8800;-82
2022/02/22 05:12:36;;;;;;;;;10.75;9.00;;;;;-146.37;100.00;59337.28;6389819;22;8739;-82
2022/02/22 05:15:03;;;;;;;;;11.50;10.50;;;;;-146.37;100.00;59337.28;6391667;22;8695;-83
2022/02/22 05:17:28;;;;;;;;;11.50;9.00;;;;;-146.37;100.00;59337.28;6392852;22;8749;-83
2022/02/22 05:19:54;;;;;;;;;13.67;8.00;;;;;-146.37;100.00;59337.28;6392568;22;8750;-83
2022/02/22 05:22:19;;;;;;;;;14.00;12.33;;;;;-146.37;100.00;59337.28;6392421;22;8754;-83
2022/02/22 05:24:45;;;;;;;;;12.00;7.00;;;;;-146.37;100.00;59337.28;6390844;22;8762;-82
2022/02/22 05:27:10;;;;;;;;;11.67;7.67;;;;;-146.37;100.00;59337.28;6391898;22;8792;-83
2022/02/22 05:29:36;;;;;;;;;12.00;12.00;;;;;-146.37;100.00;59337.28;6393920;22;8742;-82
2022/02/22 05:32:01;;;;;;;;;10.00;7.00;;;;;-146.37;100.00;59337.28;6396697;22;8864;-82
2022/02/22 05:34:29;;;;;;;;;12.33;12.33;;;;;-146.37;100.00;59337.28;6396374;22;8765;-82
2022/02/22 05:36:59;;;;;;;;;12.00;7.75;;;;;-146.37;100.00;59337.28;6395207;22;8714;-82
2022/02/22 05:39:24;;;;;;;;;15.25;9.00;;;;;-146.37;100.00;59337.28;6397184;22;8667;-82
2022/02/22 05:41:50;;;;;;;;;12.00;7.00;;;;;-146.37;100.00;59337.28;6396547;22;8749;-83
2022/02/22 05:44:15;;;;;;;;;18.00;9.00;;;;;-146.37;100.00;59337.28;6391125;22;8770;-83
2022/02/22 05:46:41;;;;;;;;;8.33;8.00;;;;;-146.37;100.00;59337.28;6390564;22;8742;-82
2022/02/22 05:49:06;;;;;;;;;12.00;7.00;;;;;-146.37;100.00;59337.28;6390729;22;8781;-82
2022/02/22 05:51:32;;;;;;;;;9.00;8.67;;;;;-146.37;100.00;59337.28;6394010;22;9477;-82
2022/02/22 05:53:57;;;;;;;;;17.33;11.33;;;;;-146.37;100.00;59337.28;6388982;22;8690;-82
2022/02/22 05:56:22;;;;;;;;;4.67;4.67;;;;;-146.37;100.00;59337.28;6414676;22;9306;-82
2022/02/22 05:58:48;;;;;;;;;9.00;6.67;;;;;-146.37;100.00;59337.28;6385695;22;8755;-82
2022/02/22 06:01:15;;;;;;;;;8.33;8.00;;;;;-146.37;100.00;59337.28;6389388;22;8781;-82
2022/02/22 06:03:40;;;;;;;;;11.75;8.50;;;;;-146.37;100.00;59337.28;6389187;22;8855;-82
2022/02/22 06:06:05;;;;;;;;;9.00;7.00;;;;;-146.37;100.00;59337.28;6390003;22;8742;-82
2022/02/22 06:08:31;;;;;;;;;12.33;9.67;;;;;-146.37;100.00;59337.28;6389893;22;8819;-82
2022/02/22 06:10:56;;;;;;;;;9.33;9.00;;;;;-146.37;100.00;59337.28;6388643;22;8766;-82
2022/02/22 06:13:23;;;;;;;;;9.00;9.00;;;;;-146.37;100.00;59337.28;6390154;22;8758;-82
2022/02/22 06:15:49;;;;;;;;;9.50;7.75;;;;;-146.37;100.00;59337.28;6414871;22;8722;-82
2022/02/22 06:18:17;;;;;;;;;17.00;10.33;;;;;-146.37;100.00;59337.28;6388405;22;8866;-82
2022/02/22 06:20:43;;;;;;;;;11.50;8.75;;;;;-146.37;100.00;59337.28;6390310;22;8730;-82
2022/02/22 06:23:09;;;;;;;;;12.25;8.00;;;;;-146.37;100.00;59337.28;6387102;22;9371;-83
2022/02/22 06:26:31;;;;;;;;;13.00;7.33;;;;;-146.37;100.00;59337.28;6386888;22;8738;-82
2022/02/22 06:28:56;;;;;;;;;10.50;7.25;;;;;-146.37;100.00;59337.28;6391901;22;8739;-83
2022/02/22 06:31:22;;;;;;;;;12.33;8.67;;;;;-146.37;100.00;59337.28;6391290;22;8851;-83
2022/02/22 06:33:47;;;;;;;;;12.67;11.67;;;;;-146.37;100.00;59337.28;6392467;22;8766;-83
2022/02/22 06:36:13;;;;;;;;;11.67;9.67;;;;;-146.37;100.00;59337.28;6391859;22;8777;-83
2022/02/22 06:39:28;;;;;;;;;14.67;7.33;;;;;-146.37;100.00;59337.28;6392320;22;8735;-83
2022/02/22 06:41:56;;;;;;;;;9.50;7.25;;;;;-146.37;100.00;59337.28;6388645;22;8741;-82
2022/02/22 06:44:22;;;;;;;;;11.50;9.75;;;;;-146.37;100.00;59337.28;6394268;22;8735;-83
2022/02/22 06:46:47;;;;;;;;;13.00;10.33;;;;;-146.37;100.00;59337.28;6366146;22;9264;-81
2022/02/22 06:49:13;;;;;;;;;19.00;13.33;;;;;-146.37;100.00;59337.28;6364743;22;8760;-82
2022/02/22 06:51:38;;;;;;;;;14.00;11.67;;;;;-146.37;100.00;59337.28;6391878;22;8809;-83
2022/02/22 06:54:04;;;;;;;;;13.00;10.33;;;;;-146.37;100.00;59337.28;6362668;22;8786;-83
2022/02/22 06:56:29;;;;;;;;;8.67;8.67;;;;;-146.37;100.00;59337.28;6364330;22;9665;-83
2022/02/22 06:58:54;;;;;;;;;14.00;11.33;;;;;-146.37;100.00;59337.28;6390382;22;8862;-84
2022/02/22 07:01:20;;;;;;;;;18.00;9.33;;;;;-146.37;100.00;59337.28;6359036;22;8783;-85
2022/02/22 07:03:47;;;;;;;;;10.67;9.67;;;;;-146.37;100.00;59337.28;6390913;22;8762;-83
2022/02/22 07:06:13;;;;;;;;;8.25;6.75;;;;;-146.37;100.00;59337.28;6390220;22;8732;-82
2022/02/22 07:08:38;;;;;;;;;14.50;8.50;;;;;-146.37;100.00;59337.28;6361553;22;8676;-84
2022/02/22 07:11:04;;;;;;;;;11.67;8.00;;;;;-146.37;100.00;59337.28;6362541;22;8735;-84
2022/02/22 07:13:29;;;;;;;;;6.00;6.00;;;;;-146.37;100.00;59337.28;6361725;22;8743;-84
2022/02/22 07:15:55;;;;;;;;;11.67;8.00;;;;;-146.37;100.00;59337.28;6360422;22;8732;-84
2022/02/22 07:18:20;;;;;;;;;11.67;8.33;;;;;-146.37;100.00;59337.28;6390781;22;8748;-83
2022/02/22 07:24:10;;;;;;;;;14.75;11.25;;;;;-146.37;100.00;59337.28;6390418;22;8665;-82
2022/02/22 07:26:36;;;;;;;;;21.50;14.25;;;;;-146.37;100.00;59337.28;6387480;22;8809;-83
2022/02/22 07:29:03;;;;;;;;;11.33;8.67;;;;;-146.37;100.00;59337.28;6390065;22;8756;-83
2022/02/22 07:31:29;;;;;;;;;15.25;9.00;;;;;-146.37;100.00;59337.28;6360041;22;8684;-82
2022/02/22 07:33:54;;;;;;;;;12.33;9.00;;;;;-146.37;100.00;59337.28;6362396;22;8756;-83
2022/02/22 07:36:20;;;;;;;;;10.67;9.00;;;;;-146.37;100.00;59337.28;6362839;22;8803;-83
2022/02/22 07:38:45;;;;;;;;;12.67;8.00;;;;;-146.37;100.00;59337.28;6362153;22;8736;-83
2022/02/22 07:41:10;;;;;;;;;8.67;6.67;;;;;-146.37;100.00;59337.28;6388358;22;8744;-83
2022/02/22 07:43:36;;;;;;;;;12.00;8.33;;;;;-146.37;100.00;59337.28;6363802;22;8767;-83
2022/02/22 07:46:01;;;;;;;;;11.67;8.33;;;;;-146.37;100.00;59337.28;6362756;22;8771;-83
2022/02/22 07:48:27;;;;;;;;;14.67;9.00;;;;;-146.37;100.00;59337.28;6364515;22;8760;-83
2022/02/22 07:50:52;;;;;;;;;10.00;10.00;;;;;-146.37;100.00;59337.28;6364810;22;9459;-84
2022/02/22 07:53:18;;;;;;;;;19.00;13.33;;;;;-146.37;100.00;59337.28;6389495;22;8743;-84
2022/02/22 07:55:43;;;;;;;;;13.67;9.00;;;;;-146.37;100.00;59337.28;6362962;22;8752;-84
2022/02/22 07:58:12;;;;;;;;;12.00;9.33;;;;;-146.37;100.00;59337.28;6396906;22;8760;-83
2022/02/22 08:00:38;;;;;;;;;12.75;8.25;;;;;-146.37;100.00;59337.28;6394133;22;8691;-83
2022/02/22 08:03:04;;;;;;;;;12.67;12.00;;;;;-146.37;100.00;59337.28;6341279;22;8696;-83
2022/02/22 08:05:30;;;;;;;;;21.67;18.33;;;;;-146.37;100.00;59337.28;6367992;22;8744;-83
2022/02/22 08:08:05;;;;;;;;;9.33;8.67;;;;;-146.37;100.00;59337.28;6369587;22;8715;-84
2022/02/22 08:10:31;;;;;;;;;17.25;13.50;;;;;-146.37;100.00;59337.28;6368664;22;8700;-84
2022/02/22 08:13:09;;;;;;;;;14.00;12.00;;;;;-146.37;100.00;59337.28;6369446;22;8738;-83
2022/02/22 08:15:42;;;;;;;;;14.25;12.25;;;;;-146.37;100.00;59337.28;6361061;22;11437;-82
2022/02/22 08:18:08;;;;;;;;;15.50;12.50;;;;;-146.37;100.00;59337.28;6364354;22;8723;-83
2022/02/22 08:20:37;;;;;;;;;11.00;8.00;;;;;-146.37;100.00;59337.28;6363713;22;8744;-84
2022/02/22 08:26:25;;;;;;;;;14.50;9.25;;;;;-146.37;100.00;59337.28;6394041;22;8669;-84
2022/02/22 08:28:51;;;;;;;;;9.33;9.33;;;;;-146.37;100.00;59337.28;6396250;22;8738;-82
2022/02/22 08:31:17;;;;;;;;;11.00;8.67;;;;;-146.37;100.00;59337.28;6365457;22;8766;-82
2022/02/22 08:33:42;;;;;;;;;17.00;12.33;;;;;-146.37;100.00;59337.28;6371810;22;8793;-83
2022/02/22 08:39:31;;;;;;;;;9.25;8.50;;;;;-146.37;100.00;59337.28;6396919;22;8696;-84
2022/02/22 08:41:57;;;;;;;;;7.75;7.75;;;;;-146.37;100.00;59337.28;6395873;22;8692;-83
2022/02/22 08:44:22;;;;;;;;;17.33;14.00;;;;;-146.37;100.00;59337.28;6377855;22;9153;-83
2022/02/22 08:46:48;;;;;;;;;10.00;9.67;;;;;-146.37;100.00;59337.28;6399255;22;8762;-84
2022/02/22 08:52:48;;;;;;;;;13.00;10.75;;;;;-146.37;100.00;59337.28;6399078;22;8722;-83
2022/02/22 08:55:18;;;;;;;;;11.75;9.50;;;;;-146.37;100.00;59337.28;6397964;22;8758;-83
2022/02/22 08:57:46;;;;;;;;;14.50;10.00;;;;;-146.37;100.00;59337.28;6396758;22;8683;-82
2022/02/22 09:00:14;;;;;;;;;14.00;10.00;;;;;-146.37;100.00;59337.28;6419640;22;8840;-83
2022/02/22 09:02:40;;;;;;;;;13.50;9.50;;;;;-146.37;100.00;59337.28;6392086;22;8722;-82
2022/02/22 09:08:28;;;;;;;;;8.50;7.00;;;;;-146.37;100.00;59337.28;6393671;22;8671;-83
2022/02/22 09:11:16;;;;;;;;;11.67;9.67;;;;;-146.37;100.00;59337.28;6393753;22;8939;-84
2022/02/22 09:13:43;;;;;;;;;13.00;11.25;;;;;-146.37;100.00;59337.28;6397528;22;10198;-82
2022/02/22 09:16:13;;;;;;;;;9.75;7.75;;;;;-146.37;100.00;59337.28;6398492;22;8710;-84
2022/02/22 09:19:22;;;;;;;;;9.50;8.00;;;;;-146.37;100.00;59337.28;6433502;22;8757;-84
2022/02/22 09:22:39;;;;;;;;;10.00;3.25;;;;;-146.37;100.00;59337.28;6403915;22;8711;-83
2022/02/22 09:25:08;;;;;;;;;10.50;9.00;;;;;-146.37;100.00;59337.28;6260380;22;8752;-81
2022/02/22 09:27:42;;;;;;;;;8.25;3.75;;;;;-146.37;100.00;59337.28;6305149;22;9422;-83
2022/02/22 09:30:13;;;;;;;;;10.00;7.25;;;;;-146.37;100.00;59337.28;6331384;22;9685;-82
2022/02/22 09:32:53;;;;;;;;;12.50;10.75;;;;;-146.37;100.00;59337.28;6329488;22;8707;-84
2022/02/22 09:35:24;;;;;;;;;11.00;8.00;;;;;-146.37;100.00;59337.28;6281400;22;8732;-81
2022/02/22 09:38:27;;;;;;;;;11.25;9.75;;;;;-146.37;100.00;59337.28;6303558;22;8729;-83
2022/02/22 09:40:53;;;;;;;;;8.25;7.25;;;;;-146.37;100.00;59337.28;6327063;22;8767;-82
2022/02/22 09:43:18;;;;;;;;;11.33;8.67;;;;;-146.37;100.00;59337.28;6301839;22;9542;-82
2022/02/22 09:45:45;;;;;;;;;10.00;6.00;;;;;-146.37;100.00;59337.28;6305117;22;8726;-82
2022/02/22 09:48:13;;;;;;;;;8.50;7.00;;;;;-146.37;100.00;59337.28;6306694;22;8711;-81
2022/02/22 09:50:39;;;;;;;;;8.25;7.00;;;;;-146.37;100.00;59337.28;6301948;22;8694;-82
2022/02/22 09:53:09;;;;;;;;;10.67;8.00;;;;;-146.37;100.00;59337.28;6300802;22;8758;-84
2022/02/22 09:55:37;;;;;;;;;9.25;6.75;;;;;-146.37;100.00;59337.28;6352717;22;8752;-83
2022/02/22 09:58:06;;;;;;;;;10.00;7.75;;;;;-146.37;100.00;59337.28;6397032;22;8873;-83
2022/02/22 10:00:35;;;;;;;;;8.25;7.50;;;;;-146.37;100.00;59337.28;6364624;22;8759;-83
2022/02/22 10:03:01;;;;;;;;;3.50;3.50;;;;;-146.37;100.00;59337.28;6371507;22;8799;-82
2022/02/22 10:05:27;;;;;;;;;9.67;5.00;;;;;-146.37;100.00;59337.28;6371181;22;8704;-84
2022/02/22 10:08:10;;;;;;;;;7.75;7.75;;;;;-146.37;100.00;59337.28;6370832;22;10952;-83
2022/02/22 10:11:01;;;;;;;;;11.50;9.00;;;;;-146.37;100.00;59337.28;6397977;22;8672;-84
2022/02/22 10:13:34;;;;;;;;;8.50;6.25;;;;;-146.37;100.00;59337.28;6394230;22;9510;-84
2022/02/22 10:17:00;;;;;;;;;6.00;5.00;;;;;-146.37;100.00;59337.28;6394680;22;8700;-85
2022/02/22 10:19:34;;;;;;;;;16.25;11.25;;;;;-146.37;100.00;59337.28;6241931;22;8753;-85
2022/02/22 10:22:37;;;;;;;;;14.00;12.50;;;;;-146.37;100.00;59337.28;6267787;22;8717;-85
2022/02/22 10:25:54;;;;;;;;;10.75;9.50;;;;;-146.37;100.00;59337.28;6267348;22;8707;-84
2022/02/22 10:28:42;;;;;;;;;13.00;12.25;;;;;-146.37;100.00;59337.28;6118832;23;8846;-84
2022/02/22 10:31:38;;;;;;;;;10.50;9.00;;;;;-146.37;100.00;59337.28;6123580;23;8763;-84
2022/02/22 10:34:09;;;;;;;;;10.00;6.00;;;;;-146.37;100.00;59337.28;6148655;23;8850;-83
2022/02/22 10:36:43;;;;;;;;;6.00;5.50;;;;;-146.37;100.00;59337.28;6124264;23;8755;-81
2022/02/22 10:39:20;;;;;;;;;12.00;9.50;;;;;-146.37;100.00;59337.28;6148850;23;8715;-83
2022/02/22 10:41:57;;;;;;;;;9.25;8.00;;;;;-146.37;100.00;59337.28;6147063;23;8724;-82
2022/02/22 10:44:44;;;;;;;;;8.00;8.00;;;;;-146.37;100.00;59337.28;6132250;23;8762;-82
2022/02/22 10:47:19;;;;;;;;;5.25;5.25;;;;;-146.37;100.00;59337.28;6205504;22;8709;-82
2022/02/22 10:49:52;;;;;;;;;17.75;17.50;;;;;-146.37;100.00;59337.28;6265395;22;8722;-82
2022/02/22 10:52:37;;;;;;;;;5.75;5.00;;;;;-146.37;100.00;59337.28;6263870;22;8753;-81
2022/02/22 10:55:12;;;;;;;;;12.50;10.25;;;;;-146.37;100.00;59337.28;6267382;22;8702;-81
2022/02/22 10:57:52;;;;;;;;;15.50;11.00;;;;;-146.37;100.00;59337.28;6365190;22;8680;-82
2022/02/22 11:00:18;;;;;;;;;11.50;11.25;;;;;-146.37;100.00;59337.28;6374287;22;9474;-81
2022/02/22 11:02:49;;;;;;;;;11.67;10.00;;;;;-146.37;100.00;59337.28;6362944;22;8766;-83
2022/02/22 11:05:25;;;;;;;;;15.25;11.25;;;;;-146.37;100.00;59337.28;6366054;22;8724;-83
2022/02/22 11:07:56;;;;;;;;;17.25;12.50;;;;;-146.37;100.00;59337.28;6391160;22;8743;-83
2022/02/22 11:10:31;;;;;;;;;6.00;4.75;;;;;-146.37;100.00;59337.28;6364449;22;8692;-83
2022/02/22 11:13:31;;;;;;;;;9.00;7.00;;;;;-146.37;100.00;59337.28;6391481;22;8653;-83
2022/02/22 11:16:12;;;;;;;;;6.50;5.75;;;;;-146.37;100.00;59337.28;6368877;22;8756;-83
2022/02/22 11:18:47;;;;;;;;;8.50;6.00;;;;;-146.37;100.00;59337.28;6369200;22;8699;-83
2022/02/22 11:21:24;;;;;;;;;7.75;6.00;;;;;-146.37;100.00;59337.28;6371982;22;8719;-83
2022/02/22 11:24:03;;;;;;;;;6.25;4.50;;;;;-146.37;100.00;59337.28;6369966;22;8765;-84
2022/02/22 11:26:53;;;;;;;;;3.00;2.75;;;;;-146.37;100.00;59337.28;6372269;22;8810;-82
2022/02/22 11:30:25;;;;;;;;;;;;;;;;;;;;;
2022/02/22 11:33:07;;;;;;;;;4.75;4.75;;;;;-146.37;100.00;59337.28;6376816;22;35551;-83
2022/02/22 11:35:54;;;;;;;;;5.50;3.25;;;;;-146.37;100.00;59337.28;6396501;22;8688;-83
2022/02/22 11:38:27;;;;;;;;;8.00;5.50;;;;;-146.37;100.00;59337.28;6370869;22;8669;-82
2022/02/22 11:40:57;;;;;;;;;3.00;3.00;;;;;-146.37;100.00;59337.28;6372427;22;8749;-84
2022/02/22 11:43:44;;;;;;;;;4.75;4.00;;;;;-146.37;100.00;59337.28;6397369;22;8716;-84
2022/02/22 11:46:21;;;;;;;;;6.00;6.00;;;;;-146.37;100.00;59337.28;6374061;22;8711;-84